Archival Weather

General Ignacio P Garcia Intl

General Ignacio P Garcia Intl, Mexico (MMHO)

Report from: Wednesday, December 6, 2023 3:40 AM CST
Current time: Friday, February 23, 2024 2:14 PM CST

Current weather – Weather history – Daily summaries
Weather forecast

Temperature14.0°C (57.2°F)
Dew point1.0°C (33.8°F)
Winds 3 kts (1.5 m/s, 3.5 mph) East-Southeast (120°)
Visibility10 mi. (16.1 km)
Clouds Scattered clouds 20,000 ft. (6,096 m)
Altimeter30.04 in.Hg (1017 mB)
Relative humidity41 %
Density altitude-153 ft. (-47 m)
Flight conditions Visual Meteorological Conditions
Raw dataMMHO 060940Z 12003KT 10SM SCT200 14/01 A3004 RMK 8/008 ISOL AC HZY
An error has occurred. This application may no longer respond until reloaded. Reload 🗙